createdAt,value
2019-01-10T00:04:39.389Z,3
2019-01-10T00:09:41.898Z,3
2019-01-10T00:14:44.326Z,3
2019-01-10T00:19:46.778Z,2
2019-01-10T00:24:49.281Z,3
2019-01-10T00:29:51.767Z,3
2019-01-10T00:34:54.176Z,3
2019-01-10T00:39:56.645Z,4
2019-01-10T00:44:59.095Z,4
2019-01-10T00:50:01.602Z,3
2019-01-10T01:00:06.551Z,3
2019-01-10T01:05:08.953Z,2
2019-01-10T01:10:11.435Z,1
2019-01-10T01:15:13.991Z,1
2019-01-10T01:20:16.449Z,1
2019-01-10T01:25:18.831Z,1
2019-01-10T01:30:21.312Z,1
2019-01-10T01:35:23.814Z,0
2019-01-10T01:40:26.257Z,0
2019-01-10T01:45:28.662Z,0
2019-01-10T01:50:31.186Z,1
2019-01-10T01:55:33.580Z,0
2019-01-10T02:00:36.061Z,1
2019-01-10T02:05:38.624Z,0
2019-01-10T02:10:41.078Z,0
2019-01-10T02:15:43.437Z,1
2019-01-10T02:20:45.896Z,1
2019-01-10T02:25:48.352Z,1
2019-01-10T02:30:50.840Z,1
2019-01-10T02:35:53.293Z,1
2019-01-10T02:40:55.741Z,1
2019-01-10T02:45:58.235Z,1
2019-01-10T02:51:00.693Z,1
2019-01-10T02:56:03.149Z,1
2019-01-10T03:01:05.778Z,1
2019-01-10T03:06:08.160Z,2
2019-01-10T03:11:10.537Z,2
2019-01-10T03:16:13.052Z,2
2019-01-10T03:21:15.467Z,1
2019-01-10T03:26:17.919Z,2
2019-01-10T03:31:20.394Z,3
2019-01-10T03:36:22.847Z,4
2019-01-10T03:41:25.311Z,4
2019-01-10T03:46:27.787Z,4
2019-01-10T03:51:30.233Z,4
2019-01-10T03:56:32.694Z,5
2019-01-10T04:01:35.195Z,6
2019-01-10T04:06:39.690Z,7
2019-01-10T04:11:40.079Z,8
2019-01-10T04:16:42.618Z,8
2019-01-10T04:21:45.008Z,9
2019-01-10T04:26:47.503Z,10
2019-01-10T04:31:49.938Z,9
2019-01-10T04:36:52.396Z,10
2019-01-10T04:41:54.873Z,11
2019-01-10T04:46:57.344Z,9
2019-01-10T04:51:59.794Z,8
2019-01-10T04:57:02.406Z,8
2019-01-10T05:02:18.215Z,6
2019-01-10T05:07:07.176Z,7
2019-01-10T05:12:09.659Z,7
2019-01-10T05:17:12.497Z,7
2019-01-10T05:22:14.562Z,6
2019-01-10T05:27:17.044Z,5
2019-01-10T05:32:19.541Z,4
2019-01-10T05:37:21.953Z,3
2019-01-10T05:42:24.490Z,2
2019-01-10T05:47:26.911Z,2
2019-01-10T05:52:29.373Z,2
2019-01-10T05:57:31.809Z,1
2019-01-10T06:02:34.282Z,2
2019-01-10T06:07:36.736Z,2
2019-01-10T06:12:39.211Z,2
2019-01-10T06:17:41.666Z,2
2019-01-10T06:22:44.170Z,2
2019-01-10T06:27:46.598Z,2
2019-01-10T06:32:49.052Z,2
2019-01-10T06:37:51.525Z,1
2019-01-10T06:42:54.030Z,2
2019-01-10T06:47:56.438Z,2
2019-01-10T06:52:58.902Z,2
2019-01-10T07:03:03.833Z,3
2019-01-10T07:08:06.293Z,3
2019-01-10T07:13:08.773Z,3
2019-01-10T07:18:11.231Z,3
2019-01-10T07:23:13.761Z,3
2019-01-10T07:28:16.209Z,3
2019-01-10T07:33:18.614Z,3
2019-01-10T07:38:21.071Z,3
2019-01-10T07:43:23.576Z,3
2019-01-10T07:48:26.085Z,4
2019-01-10T07:53:28.538Z,3
2019-01-10T07:58:30.918Z,4
2019-01-10T08:03:33.380Z,4
2019-01-10T08:08:35.845Z,4
2019-01-10T08:13:38.312Z,3
2019-01-10T08:18:40.779Z,4
2019-01-10T08:23:43.286Z,5
2019-01-10T08:28:45.775Z,4
2019-01-10T08:33:48.161Z,3
2019-01-10T08:38:50.636Z,3
2019-01-10T08:43:53.103Z,5
2019-01-10T08:48:55.557Z,3
2019-01-10T08:53:58.025Z,3
2019-01-10T08:59:00.491Z,3
2019-01-10T09:04:02.986Z,4
2019-01-10T09:09:05.516Z,5
2019-01-10T09:14:07.915Z,3
2019-01-10T09:19:10.374Z,3
2019-01-10T09:24:12.824Z,3
2019-01-10T09:29:15.320Z,3
2019-01-10T09:34:24.499Z,3
2019-01-10T09:39:20.214Z,3
2019-01-10T09:44:22.674Z,3
2019-01-10T09:49:25.148Z,2
2019-01-10T09:54:27.584Z,2
2019-01-10T09:59:30.032Z,3
2019-01-10T10:04:32.545Z,3
2019-01-10T10:09:34.971Z,3
2019-01-10T10:14:37.506Z,4
2019-01-10T10:19:39.925Z,3
2019-01-10T10:24:42.372Z,3
2019-01-10T10:29:44.818Z,3
2019-01-10T10:34:47.368Z,2
2019-01-10T10:39:49.754Z,2
2019-01-10T10:44:52.206Z,2
2019-01-10T10:49:54.674Z,3
2019-01-10T10:54:57.153Z,4
2019-01-10T10:59:59.624Z,3
2019-01-10T11:05:02.138Z,3
2019-01-10T11:10:04.559Z,4
2019-01-10T11:15:07.016Z,4
2019-01-10T11:20:09.455Z,3
2019-01-10T11:25:11.910Z,4
2019-01-10T11:30:14.371Z,3
2019-01-10T11:35:16.838Z,3
2019-01-10T11:40:19.314Z,3
2019-01-10T11:45:21.766Z,3
2019-01-10T11:50:24.241Z,3
2019-01-10T11:55:26.691Z,3
2019-01-10T12:00:29.153Z,3
2019-01-10T12:05:31.616Z,3
2019-01-10T12:10:34.126Z,3
2019-01-10T12:15:36.539Z,3
2019-01-10T12:20:38.977Z,3
2019-01-10T12:25:41.452Z,4
2019-01-10T12:30:43.919Z,3
2019-01-10T12:35:46.422Z,3
2019-01-10T12:40:48.900Z,3
2019-01-10T12:45:51.306Z,4
2019-01-10T12:50:53.760Z,4
2019-01-10T12:55:56.239Z,4
2019-01-10T13:00:58.694Z,3
2019-01-10T13:06:01.204Z,4
2019-01-10T13:11:03.620Z,4
2019-01-10T13:16:06.103Z,4
2019-01-10T13:21:09.699Z,4
2019-01-10T13:26:11.000Z,4
2019-01-10T13:31:13.473Z,4
2019-01-10T13:36:15.930Z,4
2019-01-10T13:41:18.405Z,4
2019-01-10T13:46:20.865Z,4
2019-01-10T13:51:23.325Z,4
2019-01-10T13:56:25.814Z,4
2019-01-10T14:01:28.255Z,4
2019-01-10T14:06:30.739Z,5
2019-01-10T14:11:33.243Z,5
2019-01-10T14:16:35.658Z,4
2019-01-10T14:21:38.130Z,4
2019-01-10T14:26:40.626Z,5
2019-01-10T14:31:43.052Z,4
2019-01-10T14:36:45.513Z,4
2019-01-10T14:41:48.010Z,4
2019-01-10T14:46:50.453Z,5
2019-01-10T14:51:52.928Z,5
2019-01-10T14:56:58.015Z,5
2019-01-10T15:01:57.844Z,4
2019-01-10T15:07:00.299Z,4
2019-01-10T15:12:02.829Z,4
2019-01-10T15:17:05.234Z,4
2019-01-10T15:22:07.703Z,4
2019-01-10T15:27:10.225Z,6
2019-01-10T15:32:12.630Z,4
2019-01-10T15:37:15.088Z,5
2019-01-10T15:42:17.557Z,6
2019-01-10T15:47:20.117Z,5
2019-01-10T15:52:22.483Z,5
2019-01-10T15:57:25.121Z,5
2019-01-10T16:02:27.399Z,4
2019-01-10T16:07:29.871Z,3
2019-01-10T16:12:32.363Z,4
2019-01-10T16:17:34.793Z,5
2019-01-10T16:22:37.304Z,6
2019-01-10T16:27:39.735Z,6
2019-01-10T16:32:42.193Z,6
2019-01-10T16:37:44.905Z,5
2019-01-10T16:42:47.132Z,6
2019-01-10T16:47:49.582Z,5
2019-01-10T16:52:52.077Z,7
2019-01-10T17:02:56.992Z,7
2019-01-10T17:07:59.444Z,7
2019-01-10T17:13:01.936Z,9
2019-01-10T17:18:04.441Z,8
2019-01-10T17:23:06.836Z,8
2019-01-10T17:28:09.305Z,8
2019-01-10T17:33:12.070Z,13
2019-01-10T17:38:14.233Z,12
2019-01-10T17:43:16.733Z,10
2019-01-10T17:48:19.163Z,10
2019-01-10T17:53:21.632Z,11
2019-01-10T17:58:24.095Z,10
2019-01-10T18:03:26.560Z,10
2019-01-10T18:08:29.018Z,9
2019-01-10T18:13:31.480Z,8
2019-01-10T18:18:33.964Z,9
2019-01-10T18:23:36.419Z,8
2019-01-10T18:28:38.877Z,10
2019-01-10T18:33:41.348Z,7
2019-01-10T18:38:43.804Z,6
2019-01-10T18:43:47.016Z,6
2019-01-10T18:48:48.714Z,5
2019-01-10T18:53:51.202Z,6
2019-01-10T18:58:53.644Z,5
2019-01-10T19:03:56.122Z,6
2019-01-10T19:08:58.563Z,6
2019-01-10T19:14:01.054Z,7
2019-01-10T19:19:03.496Z,8
2019-01-10T19:24:05.951Z,6
2019-01-10T19:29:08.424Z,7
2019-01-10T19:34:10.897Z,6
2019-01-10T19:39:13.365Z,6
2019-01-10T19:44:15.852Z,5
2019-01-10T19:49:18.256Z,6
2019-01-10T19:54:20.722Z,5
2019-01-10T19:59:24.027Z,5
2019-01-10T20:04:25.650Z,6
2019-01-10T20:09:29.995Z,5
2019-01-10T20:14:30.602Z,6
2019-01-10T20:19:33.035Z,6
2019-01-10T20:24:35.513Z,7
2019-01-10T20:29:37.955Z,7
2019-01-10T20:34:40.414Z,6
2019-01-10T20:39:42.875Z,7
2019-01-10T20:44:45.350Z,6
2019-01-10T20:54:50.269Z,6
2019-01-10T20:59:52.733Z,5
2019-01-10T21:04:55.178Z,6
2019-01-10T21:09:57.670Z,6
2019-01-10T21:15:00.162Z,7
2019-01-10T21:20:02.745Z,7
2019-01-10T21:25:05.067Z,6
2019-01-10T21:30:07.480Z,7
2019-01-10T21:40:12.424Z,7
2019-01-10T21:45:14.860Z,8
2019-01-10T21:50:17.432Z,7
2019-01-10T21:55:20.833Z,8
2019-01-10T22:00:22.253Z,9
2019-01-10T22:05:24.715Z,9
2019-01-10T22:10:27.203Z,9
2019-01-10T22:15:29.632Z,9
2019-01-10T22:20:32.111Z,11
2019-01-10T22:25:34.580Z,10
2019-01-10T22:30:37.030Z,10
2019-01-10T22:35:39.509Z,10
2019-01-10T22:40:41.997Z,10
2019-01-10T22:45:44.424Z,9
2019-01-10T22:50:46.891Z,9
2019-01-10T22:55:49.356Z,9
2019-01-10T23:00:51.892Z,8
2019-01-10T23:05:54.250Z,8
2019-01-10T23:10:56.721Z,9
2019-01-10T23:15:59.173Z,8
2019-01-10T23:21:01.641Z,7
2019-01-10T23:26:04.115Z,8
2019-01-10T23:31:06.561Z,9
2019-01-10T23:36:09.049Z,9
2019-01-10T23:41:11.482Z,8
2019-01-10T23:46:13.964Z,8
2019-01-10T23:51:16.416Z,8
2019-01-10T23:56:18.880Z,8
